Time;durP1;ratioP1;P1;durP2;ratioP2;P2;SDS_P1;SDS_P2;PMS_P1;PMS_P2;Temp;Humidity;BMP_temperature;BMP_pressure;BME280_temperature;BME280_humidity;BME280_pressure;Samples;Min_cycle;Max_cycle;Signal;HPM_P1;HPM_P2
2023/01/30 00:01:28;;;;;;;88.53;37.40;;;;;;;;;;5072652;28;20555;-66
2023/01/30 00:03:55;;;;;;;90.97;38.80;;;;;;;;;;5072806;28;20045;-66
2023/01/30 00:06:23;;;;;;;93.05;37.60;;;;;;;;;;5072532;28;20045;-66
2023/01/30 00:08:51;;;;;;;89.00;36.97;;;;;;;;;;5072511;28;20052;-66
2023/01/30 00:11:19;;;;;;;88.40;36.85;;;;;;;;;;5072624;28;20444;-66
2023/01/30 00:13:50;;;;;;;91.05;38.08;;;;;;;;;;5072558;28;20044;-66
2023/01/30 00:16:18;;;;;;;97.72;39.45;;;;;;;;;;5072397;28;20078;-66
2023/01/30 00:18:45;;;;;;;101.95;38.28;;;;;;;;;;5071485;28;20135;-66
2023/01/30 00:21:13;;;;;;;87.93;36.00;;;;;;;;;;5072689;28;20462;-66
2023/01/30 00:23:41;;;;;;;89.03;35.58;;;;;;;;;;5072454;28;20066;-66
2023/01/30 00:26:10;;;;;;;99.47;39.10;;;;;;;;;;5072375;28;20506;-66
2023/01/30 00:28:38;;;;;;;100.75;37.92;;;;;;;;;;5072396;28;20033;-66
2023/01/30 00:31:06;;;;;;;93.57;36.05;;;;;;;;;;5071318;28;20490;-66
2023/01/30 00:33:35;;;;;;;96.97;35.70;;;;;;;;;;5072191;28;20036;-66
2023/01/30 00:36:03;;;;;;;90.63;34.40;;;;;;;;;;5072341;28;20123;-66
2023/01/30 00:38:30;;;;;;;91.10;35.45;;;;;;;;;;5072023;28;20051;-66
2023/01/30 00:40:58;;;;;;;100.65;36.30;;;;;;;;;;5072201;28;20051;-66
2023/01/30 00:49:19;;;;;;;101.88;38.78;;;;;;;;;;5072230;28;20184;-66
2023/01/30 00:51:48;;;;;;;97.88;37.67;;;;;;;;;;5070855;28;20147;-66
2023/01/30 00:54:15;;;;;;;102.97;38.15;;;;;;;;;;5072115;28;20036;-66
2023/01/30 00:56:43;;;;;;;116.65;40.90;;;;;;;;;;5072305;28;20040;-66
2023/01/30 00:59:10;;;;;;;112.32;37.70;;;;;;;;;;5054121;28;20044;-66
2023/01/30 01:01:38;;;;;;;95.93;35.78;;;;;;;;;;5070743;28;20048;-66
2023/01/30 01:04:07;;;;;;;80.80;32.67;;;;;;;;;;5071991;28;20048;-65
2023/01/30 01:06:35;;;;;;;81.35;31.48;;;;;;;;;;5072018;28;20045;-66
2023/01/30 01:09:04;;;;;;;77.15;31.30;;;;;;;;;;5070763;28;20402;-66
2023/01/30 01:11:31;;;;;;;80.57;30.33;;;;;;;;;;5070661;28;20048;-66
2023/01/30 01:14:00;;;;;;;77.28;31.08;;;;;;;;;;5071850;28;20086;-66
2023/01/30 01:16:28;;;;;;;38.42;17.63;;;;;;;;;;5070611;28;20045;-66
2023/01/30 01:18:57;;;;;;;29.38;14.02;;;;;;;;;;5070548;28;20040;-67
2023/01/30 01:21:25;;;;;;;22.23;10.85;;;;;;;;;;5070574;28;20063;-67
2023/01/30 01:23:53;;;;;;;19.27;9.85;;;;;;;;;;5070853;28;20044;-67
2023/01/30 01:26:21;;;;;;;23.25;10.75;;;;;;;;;;5070610;28;20387;-67
2023/01/30 01:28:48;;;;;;;20.85;10.30;;;;;;;;;;5071686;28;20051;-67
2023/01/30 01:31:17;;;;;;;22.10;11.50;;;;;;;;;;5075468;28;20107;-67
2023/01/30 01:33:45;;;;;;;25.10;12.07;;;;;;;;;;5074136;28;20028;-67
2023/01/30 01:36:12;;;;;;;20.55;9.43;;;;;;;;;;5074092;28;20582;-67
2023/01/30 01:39:00;;;;;;;23.13;10.63;;;;;;;;;;5073909;28;20036;-67
2023/01/30 01:41:27;;;;;;;18.58;8.73;;;;;;;;;;5073983;28;20036;-67
2023/01/30 01:43:58;;;;;;;17.58;9.38;;;;;;;;;;5073933;28;20053;-67
2023/01/30 01:46:28;;;;;;;18.13;9.63;;;;;;;;;;5073941;28;20065;-67
2023/01/30 01:48:57;;;;;;;17.23;8.20;;;;;;;;;;5073911;28;20102;-67
2023/01/30 01:51:33;;;;;;;14.88;7.88;;;;;;;;;;5073674;28;20494;-67
2023/01/30 01:54:13;;;;;;;16.92;8.77;;;;;;;;;;5073765;28;20044;-67
2023/01/30 01:56:42;;;;;;;16.42;7.93;;;;;;;;;;5075021;28;20067;-67
2023/01/30 01:59:20;;;;;;;15.32;8.20;;;;;;;;;;5073627;28;20131;-67
2023/01/30 02:01:49;;;;;;;17.45;8.93;;;;;;;;;;5056966;28;20127;-67
2023/01/30 02:05:00;;;;;;;19.10;7.57;;;;;;;;;;5073641;28;20036;-67
2023/01/30 02:07:04;;;;;;;15.25;8.02;;;;;;;;;;5074896;28;20033;-67
2023/01/30 02:09:32;;;;;;;15.38;7.32;;;;;;;;;;5073430;28;20044;-67
2023/01/30 02:12:00;;;;;;;17.75;8.20;;;;;;;;;;5073298;28;20131;-67
2023/01/30 02:14:28;;;;;;;14.65;7.50;;;;;;;;;;5073399;28;20044;-67
2023/01/30 02:16:56;;;;;;;14.70;7.85;;;;;;;;;;5073144;28;20071;-67
2023/01/30 02:19:29;;;;;;;15.95;7.72;;;;;;;;;;5073056;28;20560;-67
2023/01/30 02:22:16;;;;;;;14.60;7.20;;;;;;;;;;5073196;28;20036;-67
2023/01/30 02:24:43;;;;;;;18.00;7.85;;;;;;;;;;5073220;28;20060;-67
2023/01/30 02:27:20;;;;;;;13.27;6.93;;;;;;;;;;5073004;28;20037;-67
2023/01/30 02:30:06;;;;;;;16.13;7.85;;;;;;;;;;5073187;28;20106;-67
2023/01/30 02:32:34;;;;;;;;;;;;;;;;;;5074704;28;20032;-67
2023/01/30 02:35:17;;;;;;;15.27;6.90;;;;;;;;;;5074250;28;20381;-68
2023/01/30 02:38:05;;;;;;;15.18;7.00;;;;;;;;;;5072674;28;20156;-67
2023/01/30 02:40:43;;;;;;;15.95;7.93;;;;;;;;;;5033585;28;20051;-67
2023/01/30 02:43:11;;;;;;;16.15;7.68;;;;;;;;;;5072233;28;20447;-66
2023/01/30 02:45:42;;;;;;;16.58;7.75;;;;;;;;;;5072936;28;20102;-67
2023/01/30 02:48:35;;;;;;;12.00;6.55;;;;;;;;;;5072607;28;20435;-67
2023/01/30 02:51:06;;;;;;;13.85;6.20;;;;;;;;;;5060611;28;20490;-67
2023/01/30 02:53:34;;;;;;;16.40;6.97;;;;;;;;;;5072432;28;20045;-67
2023/01/30 02:56:02;;;;;;;8.55;4.28;;;;;;;;;;5072506;28;20071;-67
2023/01/30 02:58:33;;;;;;;11.98;5.85;;;;;;;;;;5072376;28;20052;-67
2023/01/30 03:01:20;;;;;;;13.57;6.40;;;;;;;;;;5072610;28;20071;-67
2023/01/30 03:03:47;;;;;;;12.48;6.57;;;;;;;;;;5073835;28;20041;-67
2023/01/30 03:06:44;;;;;;;11.95;6.18;;;;;;;;;;5072254;28;20429;-67
2023/01/30 03:09:15;;;;;;;13.50;6.18;;;;;;;;;;5055989;28;20048;-67
2023/01/30 03:11:42;;;;;;;14.75;6.05;;;;;;;;;;5072274;28;20043;-67
2023/01/30 03:14:10;;;;;;;12.95;5.97;;;;;;;;;;5072083;28;20052;-67
2023/01/30 03:16:39;;;;;;;12.18;6.68;;;;;;;;;;5072314;28;20074;-67
2023/01/30 03:19:10;;;;;;;8.43;4.72;;;;;;;;;;5072149;28;20135;-67
2023/01/30 03:21:41;;;;;;;12.70;5.95;;;;;;;;;;5073324;28;20142;-67
2023/01/30 03:24:09;;;;;;;11.45;5.50;;;;;;;;;;5071980;28;20048;-67
2023/01/30 03:26:39;;;;;;;11.30;4.82;;;;;;;;;;5071968;28;20037;-67
2023/01/30 03:29:06;;;;;;;9.25;4.97;;;;;;;;;;5071887;28;20048;-67
2023/01/30 03:31:34;;;;;;;10.38;5.35;;;;;;;;;;5071757;28;20037;-67
2023/01/30 03:34:02;;;;;;;11.23;5.65;;;;;;;;;;5071791;28;20127;-67
2023/01/30 03:36:31;;;;;;;12.55;6.57;;;;;;;;;;5073124;28;20074;-67
2023/01/30 03:38:59;;;;;;;11.98;5.75;;;;;;;;;;5071698;28;20410;-67
2023/01/30 03:41:26;;;;;;;14.27;6.53;;;;;;;;;;5072884;28;20120;-67
2023/01/30 03:43:54;;;;;;;15.43;7.25;;;;;;;;;;5071331;28;20437;-67
2023/01/30 03:46:21;;;;;;;11.48;5.95;;;;;;;;;;5071475;28;20044;-67
2023/01/30 03:48:49;;;;;;;13.82;6.95;;;;;;;;;;5071513;28;20040;-67
2023/01/30 03:51:17;;;;;;;13.23;5.60;;;;;;;;;;5071407;28;20491;-67
2023/01/30 03:53:44;;;;;;;14.05;6.13;;;;;;;;;;5071401;28;20047;-67
2023/01/30 03:56:12;;;;;;;13.25;6.35;;;;;;;;;;5071286;28;20040;-67
2023/01/30 03:58:40;;;;;;;11.90;5.65;;;;;;;;;;5071347;28;20045;-67
2023/01/30 04:01:20;;;;;;;12.95;7.05;;;;;;;;;;5072940;28;20132;-67
2023/01/30 04:03:47;;;;;;;10.27;5.05;;;;;;;;;;5071333;28;20556;-67
2023/01/30 04:06:15;;;;;;;11.00;5.50;;;;;;;;;;5054928;28;20437;-67
2023/01/30 04:08:44;;;;;;;10.75;5.45;;;;;;;;;;5071507;28;20049;-67
2023/01/30 04:11:22;;;;;;;9.50;4.85;;;;;;;;;;5071283;28;20119;-67
2023/01/30 04:13:50;;;;;;;14.23;6.20;;;;;;;;;;5071147;28;20083;-67
2023/01/30 04:16:19;;;;;;;10.82;5.63;;;;;;;;;;5071280;28;20123;-67
2023/01/30 04:19:16;;;;;;;10.40;5.72;;;;;;;;;;5052713;28;20068;-66
2023/01/30 04:21:44;;;;;;;11.27;5.47;;;;;;;;;;5071189;28;20502;-67
2023/01/30 04:24:12;;;;;;;11.73;5.85;;;;;;;;;;5071337;28;20040;-67
2023/01/30 04:26:39;;;;;;;9.63;5.15;;;;;;;;;;5054499;28;20086;-67
2023/01/30 04:29:07;;;;;;;10.82;5.65;;;;;;;;;;5070889;28;20082;-67
2023/01/30 04:31:37;;;;;;;13.52;6.55;;;;;;;;;;5071094;28;20397;-67
2023/01/30 04:34:07;;;;;;;11.48;5.95;;;;;;;;;;5070862;28;20045;-66
2023/01/30 04:36:35;;;;;;;11.77;5.90;;;;;;;;;;5054732;28;20048;-67
2023/01/30 04:39:03;;;;;;;15.13;6.47;;;;;;;;;;5070939;28;20040;-66
2023/01/30 04:41:32;;;;;;;19.67;8.63;;;;;;;;;;5071120;28;20036;-67
2023/01/30 04:44:00;;;;;;;18.40;8.50;;;;;;;;;;5070847;28;20044;-67
2023/01/30 04:46:47;;;;;;;18.92;8.15;;;;;;;;;;5070954;28;20123;-67
2023/01/30 04:49:16;;;;;;;15.93;8.38;;;;;;;;;;5070745;28;20048;-67
2023/01/30 04:51:44;;;;;;;11.10;5.65;;;;;;;;;;5070938;28;20041;-67
2023/01/30 04:54:12;;;;;;;13.68;5.82;;;;;;;;;;5070838;28;20378;-67
2023/01/30 04:56:41;;;;;;;13.13;6.68;;;;;;;;;;5070903;28;20106;-67
2023/01/30 04:59:09;;;;;;;13.02;6.15;;;;;;;;;;5070818;28;20045;-67
2023/01/30 05:01:41;;;;;;;15.23;7.97;;;;;;;;;;5070741;28;20402;-66
2023/01/30 05:04:09;;;;;;;12.77;5.75;;;;;;;;;;5072386;28;20048;-66
2023/01/30 05:06:37;;;;;;;11.77;5.93;;;;;;;;;;5075978;28;20029;-66
2023/01/30 05:09:05;;;;;;;12.38;6.22;;;;;;;;;;5075717;28;20036;-67
2023/01/30 05:11:33;;;;;;;12.40;6.28;;;;;;;;;;5075571;28;20428;-67
2023/01/30 05:14:01;;;;;;;9.77;5.75;;;;;;;;;;5075396;28;20521;-66
2023/01/30 05:16:28;;;;;;;12.75;6.40;;;;;;;;;;5074270;28;20040;-67
2023/01/30 05:18:56;;;;;;;12.23;5.47;;;;;;;;;;5075407;28;20436;-66
2023/01/30 05:21:25;;;;;;;15.45;7.07;;;;;;;;;;5075551;28;20044;-67
2023/01/30 05:23:52;;;;;;;12.05;6.07;;;;;;;;;;5075521;28;20442;-67
2023/01/30 05:26:20;;;;;;;13.25;6.47;;;;;;;;;;5075420;28;20041;-67
2023/01/30 05:28:52;;;;;;;14.70;6.60;;;;;;;;;;5075564;28;20371;-67
2023/01/30 05:31:20;;;;;;;12.35;6.15;;;;;;;;;;5075323;28;20090;-67
2023/01/30 05:33:48;;;;;;;14.63;7.28;;;;;;;;;;5075198;28;20572;-66
2023/01/30 05:36:17;;;;;;;14.73;7.25;;;;;;;;;;5075151;28;20063;-66
2023/01/30 05:38:44;;;;;;;12.95;6.45;;;;;;;;;;5075057;28;20098;-66
2023/01/30 05:41:12;;;;;;;12.95;7.00;;;;;;;;;;5074331;28;20044;-66
2023/01/30 05:43:40;;;;;;;14.18;6.65;;;;;;;;;;5074938;28;20569;-67
2023/01/30 05:46:09;;;;;;;12.45;6.43;;;;;;;;;;5074661;28;20079;-66
2023/01/30 05:48:37;;;;;;;13.88;6.63;;;;;;;;;;5074675;28;20086;-67
2023/01/30 05:51:04;;;;;;;16.90;7.78;;;;;;;;;;5074946;28;20048;-66
2023/01/30 05:53:36;;;;;;;15.05;7.70;;;;;;;;;;5074881;28;20037;-67
2023/01/30 05:56:05;;;;;;;15.50;7.50;;;;;;;;;;5074957;28;20041;-66
2023/01/30 05:58:32;;;;;;;15.45;7.82;;;;;;;;;;5074563;28;20037;-66
2023/01/30 06:01:01;;;;;;;13.50;7.07;;;;;;;;;;5073650;28;20037;-66
2023/01/30 06:03:28;;;;;;;13.68;7.63;;;;;;;;;;5074953;28;20040;-66
2023/01/30 06:05:56;;;;;;;13.40;7.47;;;;;;;;;;5074817;28;20032;-67
2023/01/30 06:08:24;;;;;;;13.52;7.90;;;;;;;;;;5074714;28;20048;-66
2023/01/30 06:10:52;;;;;;;15.15;7.97;;;;;;;;;;5074730;28;20044;-66
2023/01/30 06:13:20;;;;;;;14.52;7.68;;;;;;;;;;5075050;28;20036;-66
2023/01/30 06:15:47;;;;;;;14.60;8.63;;;;;;;;;;5073523;28;20124;-67
2023/01/30 06:18:15;;;;;;;13.70;7.05;;;;;;;;;;5074570;28;20541;-66
2023/01/30 06:20:47;;;;;;;22.50;13.07;;;;;;;;;;5074694;28;20045;-66
2023/01/30 06:23:15;;;;;;;21.42;12.50;;;;;;;;;;5074543;28;20497;-66
2023/01/30 06:25:43;;;;;;;19.05;10.52;;;;;;;;;;5074505;28;20543;-67
2023/01/30 06:28:11;;;;;;;20.48;11.20;;;;;;;;;;5074322;28;20425;-67
2023/01/30 06:30:39;;;;;;;19.27;10.05;;;;;;;;;;5073057;28;20045;-65
2023/01/30 06:33:07;;;;;;;17.85;8.40;;;;;;;;;;5074293;28;20036;-66
2023/01/30 06:35:36;;;;;;;14.50;8.35;;;;;;;;;;5074327;28;20045;-66
2023/01/30 06:38:04;;;;;;;15.10;8.05;;;;;;;;;;5074141;28;20052;-65
2023/01/30 06:40:32;;;;;;;15.20;8.38;;;;;;;;;;5074143;28;20040;-65
2023/01/30 06:42:59;;;;;;;10.95;6.07;;;;;;;;;;5072950;28;20500;-67
2023/01/30 06:45:27;;;;;;;19.10;9.55;;;;;;;;;;5073997;28;20045;-65
2023/01/30 06:47:55;;;;;;;22.23;10.73;;;;;;;;;;5073949;28;20037;-66
2023/01/30 06:50:26;;;;;;;17.77;9.07;;;;;;;;;;5073954;28;20032;-66
2023/01/30 06:52:54;;;;;;;18.83;9.02;;;;;;;;;;5073786;28;20067;-66
2023/01/30 06:55:24;;;;;;;17.77;9.82;;;;;;;;;;5072456;28;20036;-66
2023/01/30 06:58:02;;;;;;;17.88;7.43;;;;;;;;;;5073819;28;20050;-66
2023/01/30 07:00:30;;;;;;;20.98;10.45;;;;;;;;;;5072296;28;20564;-66
2023/01/30 07:02:58;;;;;;;19.63;9.73;;;;;;;;;;5073979;28;20032;-66
2023/01/30 07:05:27;;;;;;;20.40;9.52;;;;;;;;;;5073609;28;20119;-66
2023/01/30 07:07:55;;;;;;;16.85;8.45;;;;;;;;;;5073589;28;20036;-66
2023/01/30 07:10:24;;;;;;;15.52;8.15;;;;;;;;;;5073567;28;20119;-66
2023/01/30 07:12:52;;;;;;;16.42;7.97;;;;;;;;;;5073680;28;20524;-66
2023/01/30 07:15:20;;;;;;;16.70;8.07;;;;;;;;;;5073467;28;20087;-65
2023/01/30 07:17:47;;;;;;;16.27;8.80;;;;;;;;;;5073528;28;20040;-65
2023/01/30 07:20:15;;;;;;;14.05;7.40;;;;;;;;;;5073642;28;20079;-66
2023/01/30 07:22:48;;;;;;;15.45;7.63;;;;;;;;;;5073422;28;20037;-65
2023/01/30 07:25:16;;;;;;;14.38;7.55;;;;;;;;;;5072280;28;20056;-65
2023/01/30 07:27:43;;;;;;;15.13;7.90;;;;;;;;;;5072897;28;20503;-66
2023/01/30 07:30:11;;;;;;;13.85;7.60;;;;;;;;;;5073226;28;20055;-66
2023/01/30 07:32:38;;;;;;;14.48;7.93;;;;;;;;;;5073129;28;20036;-66
2023/01/30 07:35:06;;;;;;;16.50;7.65;;;;;;;;;;5073099;28;20044;-66
2023/01/30 07:37:34;;;;;;;13.20;7.25;;;;;;;;;;5073019;28;20371;-66
2023/01/30 07:40:01;;;;;;;12.27;7.38;;;;;;;;;;5071802;28;20044;-66
2023/01/30 07:42:29;;;;;;;14.48;8.00;;;;;;;;;;5073087;28;20036;-66
2023/01/30 07:44:56;;;;;;;16.90;8.45;;;;;;;;;;5071578;28;20066;-66
2023/01/30 07:47:24;;;;;;;14.68;8.45;;;;;;;;;;5073185;28;20036;-66
2023/01/30 07:49:51;;;;;;;14.98;8.23;;;;;;;;;;5072849;28;20044;-66
2023/01/30 07:52:19;;;;;;;13.77;7.75;;;;;;;;;;5071571;28;20050;-66
2023/01/30 07:54:46;;;;;;;15.75;9.10;;;;;;;;;;5072720;28;20106;-66
2023/01/30 07:57:14;;;;;;;15.93;9.55;;;;;;;;;;5071331;28;20068;-66
2023/01/30 07:59:41;;;;;;;17.00;9.80;;;;;;;;;;5071400;28;20469;-65
2023/01/30 08:02:09;;;;;;;14.70;7.60;;;;;;;;;;5073012;28;20086;-65
2023/01/30 08:04:37;;;;;;;12.60;7.40;;;;;;;;;;5072625;28;20037;-66
2023/01/30 08:07:05;;;;;;;13.77;7.57;;;;;;;;;;5072770;28;20033;-65
2023/01/30 08:09:32;;;;;;;12.85;7.05;;;;;;;;;;5072880;28;20124;-66
2023/01/30 08:11:59;;;;;;;14.38;7.93;;;;;;;;;;5072506;28;20044;-65
2023/01/30 08:14:28;;;;;;;14.02;7.88;;;;;;;;;;5072485;28;20091;-65
2023/01/30 08:16:56;;;;;;;15.35;8.40;;;;;;;;;;5072539;28;20048;-65
2023/01/30 08:19:24;;;;;;;15.05;8.50;;;;;;;;;;5072392;28;20048;-65
2023/01/30 08:21:51;;;;;;;14.60;7.95;;;;;;;;;;5072397;28;20040;-65
2023/01/30 08:24:19;;;;;;;17.73;9.73;;;;;;;;;;5071448;28;20047;-66
2023/01/30 08:26:49;;;;;;;17.95;9.75;;;;;;;;;;5072386;28;20040;-65
2023/01/30 08:29:17;;;;;;;16.92;9.48;;;;;;;;;;5072533;28;20050;-65
2023/01/30 08:31:44;;;;;;;19.25;9.70;;;;;;;;;;5072656;28;20044;-66
2023/01/30 08:34:12;;;;;;;15.48;7.25;;;;;;;;;;5072339;28;20397;-65
2023/01/30 08:36:39;;;;;;;15.68;8.27;;;;;;;;;;5072400;28;20048;-65
2023/01/30 08:39:07;;;;;;;16.98;8.68;;;;;;;;;;5072423;28;20041;-65
2023/01/30 08:41:34;;;;;;;17.95;9.00;;;;;;;;;;5076375;28;20055;-65
2023/01/30 08:44:01;;;;;;;15.73;9.15;;;;;;;;;;5076071;28;20045;-65
2023/01/30 08:46:29;;;;;;;15.23;8.30;;;;;;;;;;5076444;28;20040;-65
2023/01/30 08:48:56;;;;;;;14.68;8.10;;;;;;;;;;5076262;28;20491;-65
2023/01/30 08:51:24;;;;;;;16.55;9.13;;;;;;;;;;5076072;28;20438;-65
2023/01/30 08:53:51;;;;;;;14.77;8.68;;;;;;;;;;5076474;28;20094;-65
2023/01/30 08:56:19;;;;;;;15.75;8.90;;;;;;;;;;5076305;28;20047;-65
2023/01/30 08:58:47;;;;;;;15.57;8.95;;;;;;;;;;5074883;28;20037;-65
2023/01/30 09:01:15;;;;;;;16.10;8.90;;;;;;;;;;5075996;28;20057;-65
2023/01/30 09:03:42;;;;;;;15.77;9.32;;;;;;;;;;5075952;28;20124;-65
2023/01/30 09:06:10;;;;;;;17.90;10.13;;;;;;;;;;5075894;28;20045;-66
2023/01/30 09:08:38;;;;;;;13.98;8.20;;;;;;;;;;5075940;28;20102;-66
2023/01/30 09:11:06;;;;;;;17.40;9.88;;;;;;;;;;5076048;28;20066;-65
2023/01/30 09:13:34;;;;;;;16.13;8.38;;;;;;;;;;5075756;28;20158;-65
2023/01/30 09:16:03;;;;;;;15.80;8.77;;;;;;;;;;5074491;28;20461;-65
2023/01/30 09:18:30;;;;;;;15.70;8.63;;;;;;;;;;5075786;28;20036;-65
2023/01/30 09:21:04;;;;;;;15.45;9.30;;;;;;;;;;5074215;28;20051;-66
2023/01/30 09:23:32;;;;;;;16.48;9.30;;;;;;;;;;5075844;28;20437;-65
2023/01/30 09:25:59;;;;;;;16.38;9.25;;;;;;;;;;5075482;28;20044;-66
2023/01/30 09:28:27;;;;;;;15.35;8.52;;;;;;;;;;5075476;28;20455;-65
2023/01/30 09:30:56;;;;;;;16.90;8.65;;;;;;;;;;5075383;28;20098;-66
2023/01/30 09:33:24;;;;;;;15.77;8.60;;;;;;;;;;5075262;28;20040;-66
2023/01/30 09:35:52;;;;;;;16.20;9.05;;;;;;;;;;5075421;28;20037;-65
2023/01/30 09:38:20;;;;;;;14.93;8.23;;;;;;;;;;5075438;28;20501;-66
2023/01/30 09:40:51;;;;;;;13.45;8.82;;;;;;;;;;5075207;28;20044;-66
2023/01/30 09:43:33;;;;;;;15.13;9.57;;;;;;;;;;5074788;28;20123;-65
2023/01/30 09:46:21;;;;;;;17.10;9.35;;;;;;;;;;5073945;28;20394;-66
2023/01/30 09:48:49;;;;;;;15.65;8.75;;;;;;;;;;5073965;28;20453;-65
2023/01/30 09:51:28;;;;;;;16.23;9.25;;;;;;;;;;5073586;28;20036;-65
2023/01/30 09:53:55;;;;;;;15.18;9.10;;;;;;;;;;5073826;28;20116;-65
2023/01/30 09:56:23;;;;;;;17.95;10.20;;;;;;;;;;5073878;28;20094;-65
2023/01/30 09:58:54;;;;;;;18.38;9.00;;;;;;;;;;5073937;28;20036;-65
2023/01/30 10:01:34;;;;;;;16.98;9.60;;;;;;;;;;5073991;28;20037;-65
2023/01/30 10:04:01;;;;;;;17.90;10.27;;;;;;;;;;5073847;28;20119;-65
2023/01/30 10:06:30;;;;;;;19.95;11.10;;;;;;;;;;5073724;28;20067;-65
2023/01/30 10:09:12;;;;;;;19.27;11.18;;;;;;;;;;5073595;28;20033;-66
2023/01/30 10:12:02;;;;;;;17.33;10.38;;;;;;;;;;5073555;28;20051;-66
2023/01/30 10:14:53;;;;;;;20.05;12.02;;;;;;;;;;5073659;28;20115;-66
2023/01/30 10:17:23;;;;;;;19.10;11.45;;;;;;;;;;5073501;28;20048;-66
2023/01/30 10:19:57;;;;;;;22.42;11.85;;;;;;;;;;5072203;28;20045;-66
2023/01/30 10:22:24;;;;;;;22.73;12.35;;;;;;;;;;5073522;28;20501;-66
2023/01/30 10:24:58;;;;;;;22.58;12.52;;;;;;;;;;5073434;28;20044;-66
2023/01/30 10:27:28;;;;;;;19.95;11.95;;;;;;;;;;5072069;28;20586;-67
2023/01/30 10:29:57;;;;;;;22.73;13.70;;;;;;;;;;5073266;28;20045;-66
2023/01/30 10:32:46;;;;;;;21.25;11.65;;;;;;;;;;5073297;28;20063;-66
2023/01/30 10:35:16;;;;;;;22.70;12.60;;;;;;;;;;5073395;28;20041;-66
2023/01/30 10:37:56;;;;;;;19.02;11.38;;;;;;;;;;5073138;28;20108;-66
2023/01/30 10:40:30;;;;;;;23.92;14.82;;;;;;;;;;5073134;28;20044;-66
2023/01/30 10:43:16;;;;;;;20.53;12.40;;;;;;;;;;5028777;28;1264810;-66
2023/01/30 10:45:44;;;;;;;23.20;11.68;;;;;;;;;;5074161;28;20214;-66
2023/01/30 10:48:14;;;;;;;20.30;12.02;;;;;;;;;;5074009;28;20052;-66
2023/01/30 10:50:51;;;;;;;24.35;12.77;;;;;;;;;;5073900;28;20563;-65
2023/01/30 10:53:33;;;;;;;22.30;12.35;;;;;;;;;;5074070;28;20471;-66
2023/01/30 10:56:05;;;;;;;17.33;10.75;;;;;;;;;;5073902;28;20049;-66
2023/01/30 10:58:40;;;;;;;19.17;10.40;;;;;;;;;;5073767;28;20037;-66
2023/01/30 11:01:13;;;;;;;17.50;10.73;;;;;;;;;;5073613;28;20478;-66
2023/01/30 11:03:47;;;;;;;17.95;11.10;;;;;;;;;;5073226;28;20124;-65
2023/01/30 11:06:17;;;;;;;19.95;11.43;;;;;;;;;;5073678;28;20072;-65
2023/01/30 11:08:45;;;;;;;21.92;12.27;;;;;;;;;;5073618;28;20040;-65
2023/01/30 11:11:39;;;;;;;19.58;12.23;;;;;;;;;;5072363;28;20044;-65
2023/01/30 11:14:07;;;;;;;20.67;11.82;;;;;;;;;;5070438;28;20089;-66
2023/01/30 11:16:46;;;;;;;18.13;11.27;;;;;;;;;;5073513;28;20048;-66
2023/01/30 11:19:15;;;;;;;19.92;11.95;;;;;;;;;;5074548;28;20075;-66
2023/01/30 11:21:52;;;;;;;20.20;12.25;;;;;;;;;;5073153;28;20044;-66
2023/01/30 11:24:28;;;;;;;21.20;11.80;;;;;;;;;;5073384;28;20044;-66
2023/01/30 11:27:08;;;;;;;19.13;10.88;;;;;;;;;;5073292;28;20510;-66
2023/01/30 11:29:38;;;;;;;22.88;12.55;;;;;;;;;;5073023;28;20041;-66
2023/01/30 11:32:11;;;;;;;22.40;11.18;;;;;;;;;;5073272;28;20097;-66
2023/01/30 11:34:39;;;;;;;21.73;11.95;;;;;;;;;;5071917;28;20097;-66
2023/01/30 11:37:30;;;;;;;21.63;12.40;;;;;;;;;;5073052;28;20045;-66
2023/01/30 11:39:57;;;;;;;21.55;11.35;;;;;;;;;;5072961;28;20040;-66
2023/01/30 11:42:29;;;;;;;21.77;11.07;;;;;;;;;;5072952;28;20049;-65
2023/01/30 11:44:58;;;;;;;21.25;11.88;;;;;;;;;;5072701;28;20049;-65
2023/01/30 11:47:54;;;;;;;21.42;11.73;;;;;;;;;;5072982;28;20490;-65
2023/01/30 11:50:28;;;;;;;;;;;;;;;;;;5073556;28;20036;-65
2023/01/30 11:53:03;;;;;;;21.80;12.13;;;;;;;;;;5072835;28;20022;-65
2023/01/30 11:55:33;;;;;;;20.92;11.75;;;;;;;;;;5072927;28;20052;-65
2023/01/30 11:58:01;;;;;;;23.42;12.38;;;;;;;;;;5072907;28;20087;-65
2023/01/30 12:00:39;;;;;;;21.63;11.68;;;;;;;;;;5071544;28;20119;-65
2023/01/30 12:03:10;;;;;;;24.23;12.43;;;;;;;;;;5072779;28;20045;-65
2023/01/30 12:05:41;;;;;;;24.13;12.20;;;;;;;;;;5071667;28;20098;-65
2023/01/30 12:08:14;;;;;;;23.05;11.50;;;;;;;;;;5072589;28;20123;-66
2023/01/30 12:10:43;;;;;;;25.20;12.65;;;;;;;;;;5072809;28;20051;-66
2023/01/30 12:13:18;;;;;;;28.92;13.80;;;;;;;;;;5072492;28;20086;-66
2023/01/30 12:15:49;;;;;;;28.08;13.50;;;;;;;;;;5072474;28;20047;-65
2023/01/30 12:18:26;;;;;;;28.40;13.07;;;;;;;;;;5073013;28;20052;-66
2023/01/30 12:20:57;;;;;;;28.55;12.30;;;;;;;;;;5071208;28;20047;-65
2023/01/30 12:23:31;;;;;;;25.58;12.05;;;;;;;;;;5072511;28;20048;-65
2023/01/30 12:26:02;;;;;;;30.13;13.25;;;;;;;;;;5072405;28;20052;-65
2023/01/30 12:28:35;;;;;;;34.38;14.05;;;;;;;;;;5072631;28;20107;-65
2023/01/30 12:31:18;;;;;;;30.20;13.30;;;;;;;;;;5072388;28;20120;-66
2023/01/30 12:33:46;;;;;;;31.85;14.00;;;;;;;;;;5072269;28;20052;-66
2023/01/30 12:36:35;;;;;;;27.48;12.98;;;;;;;;;;5072484;28;20040;-65
2023/01/30 12:39:02;;;;;;;31.63;13.63;;;;;;;;;;5072351;28;20048;-65
2023/01/30 12:41:48;;;;;;;30.98;12.73;;;;;;;;;;5072240;28;20040;-66
2023/01/30 12:44:48;;;;;;;35.65;14.63;;;;;;;;;;5072323;28;20136;-66
2023/01/30 12:47:16;;;;;;;30.17;14.02;;;;;;;;;;5028728;28;20470;-66
2023/01/30 12:49:54;;;;;;;33.80;14.38;;;;;;;;;;5072286;28;20102;-66
2023/01/30 12:52:27;;;;;;;32.55;14.05;;;;;;;;;;5072130;28;20064;-66
2023/01/30 12:54:58;;;;;;;31.80;13.32;;;;;;;;;;5072180;28;20055;-66
2023/01/30 12:57:33;;;;;;;29.08;13.30;;;;;;;;;;5070977;28;20045;-66
2023/01/30 13:00:06;;;;;;;31.08;14.00;;;;;;;;;;5072172;28;20047;-66
2023/01/30 13:02:37;;;;;;;34.95;14.23;;;;;;;;;;5072179;28;20116;-66
2023/01/30 13:05:20;;;;;;;34.13;14.93;;;;;;;;;;5072099;28;20127;-66
2023/01/30 13:07:50;;;;;;;27.80;14.07;;;;;;;;;;5072195;28;20041;-66
2023/01/30 13:10:20;;;;;;;30.52;13.27;;;;;;;;;;5072049;28;20472;-66
2023/01/30 13:12:55;;;;;;;33.85;14.68;;;;;;;;;;5070772;28;20033;-66
2023/01/30 13:15:35;;;;;;;31.20;14.70;;;;;;;;;;5071975;28;20067;-66
2023/01/30 13:18:17;;;;;;;31.75;13.95;;;;;;;;;;5072016;28;20086;-66
2023/01/30 13:20:50;;;;;;;34.58;13.70;;;;;;;;;;5071791;28;20062;-66
2023/01/30 13:23:36;;;;;;;36.97;15.07;;;;;;;;;;5071904;28;20490;-65
2023/01/30 13:26:17;;;;;;;38.22;15.63;;;;;;;;;;5073978;28;20055;-66
2023/01/30 13:28:47;;;;;;;34.58;15.75;;;;;;;;;;5075806;28;20123;-65
2023/01/30 13:31:16;;;;;;;37.58;14.77;;;;;;;;;;5075469;28;20036;-65
2023/01/30 13:33:47;;;;;;;35.78;14.93;;;;;;;;;;5075526;28;20063;-64
2023/01/30 13:36:16;;;;;;;38.45;15.50;;;;;;;;;;5075119;28;20042;-65
2023/01/30 13:38:56;;;;;;;46.85;20.17;;;;;;;;;;5075409;28;20048;-66
2023/01/30 13:41:24;;;;;;;40.92;17.92;;;;;;;;;;5075166;28;20139;-66
2023/01/30 13:43:53;;;;;;;39.47;16.83;;;;;;;;;;5075189;28;20045;-65
2023/01/30 13:46:25;;;;;;;38.60;17.08;;;;;;;;;;5075119;28;20044;-66
2023/01/30 13:49:12;;;;;;;38.63;18.02;;;;;;;;;;5075157;28;20044;-65
2023/01/30 13:51:42;;;;;;;39.90;16.75;;;;;;;;;;5074258;28;20040;-65
2023/01/30 13:54:28;;;;;;;36.22;17.73;;;;;;;;;;5074856;28;20041;-65
2023/01/30 13:57:01;;;;;;;40.58;17.27;;;;;;;;;;5075185;28;20041;-66
2023/01/30 13:59:47;;;;;;;39.35;18.70;;;;;;;;;;5075636;28;20045;-65
2023/01/30 14:02:17;;;;;;;40.13;19.58;;;;;;;;;;5075059;28;20131;-65
2023/01/30 14:04:46;;;;;;;38.03;16.92;;;;;;;;;;5074965;28;20041;-65
2023/01/30 14:07:22;;;;;;;41.42;19.67;;;;;;;;;;5074921;28;20048;-66
2023/01/30 14:10:05;;;;;;;39.17;17.25;;;;;;;;;;5075040;28;20116;-65
2023/01/30 14:12:38;;;;;;;65.32;30.25;;;;;;;;;;5074727;28;20044;-65
2023/01/30 14:15:12;;;;;;;151.85;70.85;;;;;;;;;;5074897;28;20383;-65
2023/01/30 14:18:01;;;;;;;74.85;31.33;;;;;;;;;;5074601;28;20535;-65
2023/01/30 14:20:29;;;;;;;241.93;112.50;;;;;;;;;;5073137;28;20091;-65
2023/01/30 14:23:02;;;;;;;100.90;46.88;;;;;;;;;;5074527;28;20048;-65
2023/01/30 14:25:31;;;;;;;57.50;26.30;;;;;;;;;;5074704;28;20497;-65
2023/01/30 14:27:59;;;;;;;36.30;16.77;;;;;;;;;;5073198;28;20052;-66
2023/01/30 14:30:35;;;;;;;237.25;105.20;;;;;;;;;;5074388;28;20037;-65
2023/01/30 14:33:23;;;;;;;96.25;42.45;;;;;;;;;;5073463;28;20044;-65
2023/01/30 14:36:02;;;;;;;65.13;31.33;;;;;;;;;;5061198;28;20521;-66
2023/01/30 14:38:34;;;;;;;50.08;22.35;;;;;;;;;;5092120;28;20054;-65
2023/01/30 14:41:01;;;;;;;128.63;60.75;;;;;;;;;;5094337;28;20036;-65
2023/01/30 14:43:46;;;;;;;60.17;27.63;;;;;;;;;;5094031;28;20472;-65
2023/01/30 14:46:17;;;;;;;103.75;48.83;;;;;;;;;;5064275;28;20064;-65
2023/01/30 14:48:53;;;;;;;51.58;24.90;;;;;;;;;;5054164;28;20491;-65
2023/01/30 14:51:21;;;;;;;97.07;51.47;;;;;;;;;;5054006;28;20033;-65
2023/01/30 14:53:49;;;;;;;41.58;20.92;;;;;;;;;;5053887;28;20043;-65